Time;durP1;ratioP1;P1;durP2;ratioP2;P2;SDS_P1;SDS_P2;PMS_P1;PMS_P2;Temp;Humidity;BMP_temperature;BMP_pressure;BME280_temperature;BME280_humidity;BME280_pressure;Samples;Min_cycle;Max_cycle;Signal;HPM_P1;HPM_P2
2022/11/07 00:01:50;;;;;;;12.90;6.63;;;7.70;99.90;;;;;;5074914;28;20021;-71
2022/11/07 00:04:15;;;;;;;12.52;7.38;;;7.60;99.90;;;;;;5074183;28;20119;-71
2022/11/07 00:06:41;;;;;;;15.75;8.23;;;7.70;99.90;;;;;;5075300;28;20066;-71
2022/11/07 00:09:06;;;;;;;19.08;7.95;;;7.70;99.90;;;;;;5074594;28;20441;-71
2022/11/07 00:11:32;;;;;;;15.70;9.23;;;7.70;99.90;;;;;;5075373;28;20048;-71
2022/11/07 00:13:58;;;;;;;17.90;9.63;;;7.70;99.90;;;;;;5075253;28;20025;-71
2022/11/07 00:16:25;;;;;;;17.15;9.77;;;7.80;99.90;;;;;;5075018;28;20025;-71
2022/11/07 00:18:51;;;;;;;16.83;10.00;;;7.80;99.90;;;;;;5074720;28;20434;-71
2022/11/07 00:21:16;;;;;;;19.50;10.77;;;7.90;99.90;;;;;;5075052;28;20028;-71
2022/11/07 00:23:42;;;;;;;18.58;10.38;;;7.90;99.90;;;;;;5074735;28;20157;-72
2022/11/07 00:26:10;;;;;;;15.65;10.25;;;7.90;99.90;;;;;;5074927;28;20154;-71
2022/11/07 00:28:38;;;;;;;18.70;10.60;;;7.90;99.90;;;;;;5074301;28;20581;-72
2022/11/07 00:31:08;;;;;;;17.20;11.43;;;7.90;99.90;;;;;;5075115;28;20064;-72
2022/11/07 00:33:34;;;;;;;23.13;11.43;;;7.90;99.90;;;;;;5075203;28;20025;-72
2022/11/07 00:36:00;;;;;;;20.08;12.02;;;7.90;99.90;;;;;;5074812;28;20039;-72
2022/11/07 00:38:26;;;;;;;28.40;11.73;;;8.00;99.90;;;;;;5074583;28;20146;-71
2022/11/07 00:41:00;;;;;;;23.95;11.52;;;8.00;99.90;;;;;;5075272;28;20115;-71
2022/11/07 00:43:26;;;;;;;20.70;11.75;;;8.00;99.90;;;;;;5074864;28;20031;-71
2022/11/07 00:45:51;;;;;;;22.42;12.13;;;8.00;99.90;;;;;;5074469;28;20017;-71
2022/11/07 00:48:17;;;;;;;22.05;12.40;;;8.00;99.90;;;;;;5074495;28;20029;-71
2022/11/07 00:50:43;;;;;;;18.42;12.25;;;8.10;99.90;;;;;;5074937;28;20017;-71
2022/11/07 00:53:08;;;;;;;26.00;12.73;;;8.10;99.90;;;;;;5073909;28;20490;-71
2022/11/07 00:55:34;;;;;;;21.63;12.48;;;8.10;99.90;;;;;;5074355;28;20447;-71
2022/11/07 00:58:00;;;;;;;25.67;13.23;;;8.20;99.90;;;;;;5074378;28;20090;-71
2022/11/07 01:00:25;;;;;;;27.23;14.45;;;8.20;99.90;;;;;;5073750;28;20056;-71
2022/11/07 01:05:09;;;;;;;29.73;14.75;;;8.20;99.90;;;;;;5074305;28;20032;-71
2022/11/07 01:05:37;;;;;;;35.70;16.10;;;8.20;99.90;;;;;;5074166;28;20056;-71
2022/11/07 01:08:03;;;;;;;28.63;15.63;;;8.30;99.90;;;;;;5074825;28;20074;-71
2022/11/07 01:10:28;;;;;;;30.30;15.25;;;8.40;99.90;;;;;;5074147;28;20138;-71
2022/11/07 01:12:54;;;;;;;26.25;17.13;;;8.40;99.90;;;;;;5074020;28;20035;-72
2022/11/07 01:15:20;;;;;;;30.33;17.52;;;8.40;99.90;;;;;;5074433;28;20031;-72
2022/11/07 01:17:45;;;;;;;36.10;17.05;;;8.50;99.90;;;;;;5075188;28;20480;-71
2022/11/07 01:20:13;;;;;;;34.40;16.10;;;8.60;99.90;;;;;;5074814;28;20032;-72
2022/11/07 01:22:39;;;;;;;31.42;16.52;;;8.60;99.90;;;;;;5074868;28;20031;-71
2022/11/07 01:25:05;;;;;;;42.92;16.00;;;8.70;99.90;;;;;;5073986;28;20024;-71
2022/11/07 01:27:31;;;;;;;42.47;16.75;;;8.80;99.90;;;;;;5073373;28;20013;-71
2022/11/07 01:29:56;;;;;;;31.48;15.73;;;8.80;99.90;;;;;;5074150;28;20047;-71
2022/11/07 01:32:22;;;;;;;30.92;13.68;;;9.00;99.90;;;;;;5074649;28;20110;-72
2022/11/07 01:34:47;;;;;;;30.85;14.55;;;9.00;99.90;;;;;;5055155;28;20020;-72
2022/11/07 01:37:13;;;;;;;26.10;13.30;;;9.00;99.90;;;;;;5068752;28;20045;-71
2022/11/07 01:39:39;;;;;;;33.80;14.30;;;9.10;99.90;;;;;;5067053;28;20040;-71
2022/11/07 01:42:04;;;;;;;31.92;12.45;;;9.20;99.90;;;;;;5061205;28;20029;-71
2022/11/07 01:44:38;;;;;;;29.52;13.25;;;9.30;99.90;;;;;;5064292;28;20029;-71
2022/11/07 01:47:04;;;;;;;22.67;11.68;;;9.30;99.90;;;;;;5067376;28;20035;-71
2022/11/07 01:49:34;;;;;;;34.42;12.32;;;9.40;99.90;;;;;;5053336;28;20033;-71
2022/11/07 01:51:59;;;;;;;38.08;13.00;;;9.40;99.90;;;;;;5053777;28;20025;-71
2022/11/07 01:54:30;;;;;;;40.20;12.95;;;9.50;99.90;;;;;;5052242;28;20488;-71
2022/11/07 01:56:59;;;;;;;38.85;11.43;;;9.50;99.90;;;;;;5053405;28;20028;-71
2022/11/07 01:59:28;;;;;;;34.83;11.38;;;9.60;99.90;;;;;;5053418;28;20033;-71
2022/11/07 02:01:54;;;;;;;38.95;9.70;;;9.70;99.90;;;;;;5051504;28;20104;-71
2022/11/07 02:04:22;;;;;;;36.20;9.57;;;9.60;99.90;;;;;;5053895;28;20060;-71
2022/11/07 02:06:54;;;;;;;34.95;10.68;;;9.60;99.90;;;;;;5053156;28;20162;-71
2022/11/07 02:09:20;;;;;;;28.92;9.98;;;9.60;99.90;;;;;;5053376;28;20108;-71
2022/11/07 02:11:46;;;;;;;41.15;10.10;;;9.70;99.90;;;;;;5054297;28;20118;-70
2022/11/07 02:14:15;;;;;;;34.92;9.57;;;9.70;99.90;;;;;;5035443;28;20021;-72
2022/11/07 02:16:41;;;;;;;29.38;8.93;;;9.90;99.90;;;;;;5053256;28;20407;-71
2022/11/07 02:19:15;;;;;;;31.00;9.35;;;9.90;99.90;;;;;;5071446;28;20074;-71
2022/11/07 02:21:52;;;;;;;33.00;8.48;;;9.90;99.90;;;;;;5073550;28;20024;-72
2022/11/07 02:24:23;;;;;;;30.08;9.27;;;10.00;99.90;;;;;;5054516;28;20507;-71
2022/11/07 02:26:49;;;;;;;38.35;9.43;;;10.00;99.90;;;;;;5059423;28;20024;-71
2022/11/07 02:29:14;;;;;;;40.72;10.43;;;10.10;99.90;;;;;;5073357;28;20403;-71
2022/11/07 02:31:40;;;;;;;39.55;8.95;;;10.10;99.90;;;;;;5059358;28;20017;-71
2022/11/07 02:34:05;;;;;;;35.03;9.07;;;10.10;99.90;;;;;;5051477;28;20388;-71
2022/11/07 02:36:31;;;;;;;36.80;10.23;;;10.10;99.90;;;;;;5051723;28;20040;-71
2022/11/07 02:38:59;;;;;;;32.60;8.30;;;10.10;99.90;;;;;;5053412;28;20028;-72
2022/11/07 02:41:31;;;;;;;30.67;9.40;;;10.10;99.90;;;;;;5052918;28;20029;-71
2022/11/07 02:44:01;;;;;;;34.53;10.85;;;10.10;99.90;;;;;;5052715;28;20159;-72
2022/11/07 02:46:30;;;;;;;31.38;8.93;;;10.10;99.90;;;;;;5054394;28;20124;-71
2022/11/07 02:48:58;;;;;;;32.67;9.68;;;10.10;99.90;;;;;;5056773;28;20031;-71
2022/11/07 02:51:24;;;;;;;34.95;9.75;;;10.10;99.90;;;;;;5057281;28;20082;-71
2022/11/07 02:53:51;;;;;;;44.10;10.23;;;10.10;99.90;;;;;;5056964;28;20415;-71
2022/11/07 02:56:17;;;;;;;36.22;9.07;;;10.20;99.90;;;;;;5056807;28;20021;-71
2022/11/07 02:58:43;;;;;;;33.53;8.40;;;10.20;99.90;;;;;;5056446;28;20026;-71
2022/11/07 03:01:08;;;;;;;29.95;9.50;;;10.20;99.90;;;;;;5056974;28;20435;-71
2022/11/07 03:03:37;;;;;;;37.30;9.13;;;10.20;99.90;;;;;;5055325;28;20036;-71
2022/11/07 03:06:04;;;;;;;31.52;8.68;;;10.20;99.90;;;;;;5056664;28;20025;-71
2022/11/07 03:08:30;;;;;;;34.53;10.35;;;10.30;99.90;;;;;;5056507;28;20472;-71
2022/11/07 03:10:55;;;;;;;25.63;8.52;;;10.30;99.90;;;;;;5054666;28;20109;-71
2022/11/07 03:13:21;;;;;;;33.40;8.85;;;10.30;99.90;;;;;;5055092;28;20111;-72
2022/11/07 03:15:47;;;;;;;35.33;10.20;;;10.30;99.90;;;;;;5056503;28;20423;-72
2022/11/07 03:18:12;;;;;;;30.77;8.98;;;10.30;99.90;;;;;;5056853;28;20025;-71
2022/11/07 03:20:38;;;;;;;32.13;8.55;;;10.30;99.90;;;;;;5055976;28;20025;-71
2022/11/07 03:23:03;;;;;;;29.35;8.65;;;10.30;99.90;;;;;;5056152;28;20074;-71
2022/11/07 03:25:29;;;;;;;30.42;8.07;;;10.30;99.90;;;;;;5057097;28;20031;-71
2022/11/07 03:27:54;;;;;;;37.30;8.88;;;10.30;99.90;;;;;;5056418;28;20033;-71
2022/11/07 03:30:20;;;;;;;46.90;9.57;;;10.40;99.90;;;;;;5055568;28;20025;-71
2022/11/07 03:32:45;;;;;;;29.35;6.95;;;10.40;99.90;;;;;;5056081;28;20082;-71
2022/11/07 03:35:11;;;;;;;29.98;8.05;;;10.40;99.90;;;;;;5056584;28;20036;-72
2022/11/07 03:37:36;;;;;;;36.35;7.45;;;10.40;99.90;;;;;;5055871;28;20377;-71
2022/11/07 03:40:03;;;;;;;28.20;6.32;;;10.40;99.90;;;;;;5056126;28;20044;-71
2022/11/07 03:42:28;;;;;;;25.02;7.40;;;10.40;99.90;;;;;;5055178;28;20503;-71
2022/11/07 03:44:54;;;;;;;36.75;9.35;;;10.40;99.90;;;;;;5055807;28;20029;-71
2022/11/07 03:47:19;;;;;;;25.90;7.80;;;10.40;99.90;;;;;;5055641;28;20029;-71
2022/11/07 03:49:45;;;;;;;33.97;7.18;;;10.40;99.90;;;;;;5055697;28;20154;-71
2022/11/07 03:52:10;;;;;;;35.55;7.72;;;10.40;99.90;;;;;;5055657;28;20089;-71
2022/11/07 03:54:36;;;;;;;33.10;7.63;;;10.30;99.90;;;;;;5055168;28;20528;-71
2022/11/07 03:57:01;;;;;;;33.63;8.13;;;10.40;99.90;;;;;;5055186;28;20025;-71
2022/11/07 03:59:27;;;;;;;24.98;7.38;;;10.40;99.90;;;;;;5055454;28;20027;-71
2022/11/07 04:01:52;;;;;;;28.52;7.70;;;10.30;99.90;;;;;;5054167;28;20079;-70
2022/11/07 04:04:18;;;;;;;29.48;6.88;;;10.40;99.90;;;;;;5055927;28;20084;-70
2022/11/07 04:06:43;;;;;;;37.15;7.75;;;10.30;99.90;;;;;;5055516;28;20029;-71
2022/11/07 04:09:09;;;;;;;38.03;7.32;;;10.40;99.90;;;;;;5054894;28;20028;-70
2022/11/07 04:17:19;;;;;;;37.08;7.78;;;10.40;99.90;;;;;;5054898;28;20510;-70
2022/11/07 04:19:50;;;;;;;42.22;8.10;;;10.40;99.90;;;;;;5055030;28;20048;-70
2022/11/07 04:22:19;;;;;;;22.77;6.85;;;10.40;99.90;;;;;;5055686;28;20435;-71
2022/11/07 04:24:44;;;;;;;30.67;7.80;;;10.30;99.90;;;;;;5055266;28;20035;-71
2022/11/07 04:29:56;;;;;;;43.80;7.80;;;10.30;99.90;;;;;;5055323;28;20106;-71
2022/11/07 04:32:23;;;;;;;41.47;8.93;;;10.40;99.90;;;;;;5054371;28;20472;-71
2022/11/07 04:34:52;;;;;;;39.17;7.82;;;10.50;99.90;;;;;;5054830;28;20013;-71
2022/11/07 04:37:18;;;;;;;37.45;8.65;;;10.50;99.90;;;;;;5088942;23;20123;-68
2022/11/07 04:39:44;;;;;;;36.03;7.85;;;10.50;99.90;;;;;;5074360;28;20029;-68
2022/11/07 04:42:10;;;;;;;42.17;8.02;;;10.50;99.90;;;;;;5074280;28;20028;-69
2022/11/07 04:44:35;;;;;;;31.75;7.05;;;10.50;99.90;;;;;;5074404;28;20039;-69
2022/11/07 04:47:01;;;;;;;28.15;7.25;;;10.50;99.90;;;;;;5074334;28;20035;-69
2022/11/07 04:49:26;;;;;;;28.23;7.38;;;10.40;99.90;;;;;;5074101;28;20082;-68
2022/11/07 04:51:58;;;;;;;44.17;9.00;;;10.50;99.90;;;;;;5074369;28;20030;-69
2022/11/07 04:54:23;;;;;;;49.08;8.07;;;10.50;99.90;;;;;;5074223;28;20097;-69
2022/11/07 04:56:49;;;;;;;37.67;7.10;;;10.40;99.90;;;;;;5074591;28;20467;-69
2022/11/07 04:59:14;;;;;;;36.35;7.10;;;10.40;99.90;;;;;;5074106;28;20025;-68
2022/11/07 05:01:40;;;;;;;38.92;8.13;;;10.40;99.90;;;;;;5073513;28;20032;-68
2022/11/07 05:04:05;;;;;;;47.75;8.65;;;10.40;99.90;;;;;;5074583;28;20016;-69
2022/11/07 05:06:35;;;;;;;39.08;7.38;;;10.50;99.90;;;;;;5073892;28;20395;-69
2022/11/07 05:09:01;;;;;;;46.10;7.95;;;10.40;99.90;;;;;;5073912;28;20040;-69
2022/11/07 05:11:26;;;;;;;45.83;7.65;;;10.50;99.90;;;;;;5073465;28;20401;-68
2022/11/07 05:13:52;;;;;;;41.83;7.95;;;10.40;99.90;;;;;;5074121;28;20025;-68
2022/11/07 05:16:17;;;;;;;44.00;7.85;;;10.40;99.90;;;;;;5074201;28;20025;-69
2022/11/07 05:18:43;;;;;;;40.05;8.48;;;10.50;99.90;;;;;;5073762;28;20055;-69
2022/11/07 05:21:09;;;;;;;48.20;9.45;;;10.50;99.90;;;;;;5073201;28;20024;-68
2022/11/07 05:23:35;;;;;;;39.90;7.88;;;10.50;99.90;;;;;;5073682;28;20571;-69
2022/11/07 05:26:00;;;;;;;54.78;9.75;;;10.50;99.90;;;;;;5074076;28;20028;-69
2022/11/07 05:28:29;;;;;;;42.75;7.97;;;10.50;99.90;;;;;;5073800;28;20060;-69
2022/11/07 05:31:01;;;;;;;36.10;8.40;;;10.50;99.90;;;;;;5073011;28;20103;-68
2022/11/07 05:33:27;;;;;;;36.70;7.05;;;10.60;99.90;;;;;;5073478;28;20024;-68
2022/11/07 05:35:52;;;;;;;47.95;8.10;;;10.50;99.90;;;;;;5073355;28;20407;-68
2022/11/07 05:38:18;;;;;;;39.85;7.78;;;10.50;99.90;;;;;;5073465;28;20036;-68
2022/11/07 05:40:44;;;;;;;44.17;7.32;;;10.50;99.90;;;;;;5072864;28;20064;-68
2022/11/07 05:43:12;;;;;;;48.20;8.50;;;10.50;99.90;;;;;;5073407;28;20040;-69
2022/11/07 05:45:39;;;;;;;44.92;8.02;;;10.50;99.90;;;;;;5073365;28;20024;-69
2022/11/07 05:48:08;;;;;;;44.03;9.25;;;10.60;99.90;;;;;;5073173;28;20415;-69
2022/11/07 05:50:35;;;;;;;51.00;7.68;;;10.60;99.90;;;;;;5072960;28;20633;-68
2022/11/07 05:53:01;;;;;;;36.25;7.57;;;10.60;99.90;;;;;;5073588;28;20035;-68
2022/11/07 05:55:27;;;;;;;45.10;7.80;;;10.50;99.90;;;;;;5073242;28;20387;-68
2022/11/07 05:57:52;;;;;;;38.60;7.07;;;10.60;99.90;;;;;;5073419;28;20023;-69
2022/11/07 06:00:18;;;;;;;42.00;7.65;;;10.50;99.90;;;;;;5073493;28;20030;-69
2022/11/07 06:02:44;;;;;;;42.92;8.10;;;10.50;99.90;;;;;;5072817;28;20070;-68
2022/11/07 06:05:10;;;;;;;62.70;7.68;;;10.60;99.90;;;;;;5073458;28;20036;-68
2022/11/07 06:07:38;;;;;;;44.88;7.50;;;10.50;99.90;;;;;;5073027;28;20028;-68
2022/11/07 06:10:06;;;;;;;25.05;7.75;;;10.50;99.90;;;;;;5073861;28;20083;-68
2022/11/07 06:12:31;;;;;;;32.13;5.75;;;10.60;99.90;;;;;;5073029;28;20032;-68
2022/11/07 06:14:57;;;;;;;61.83;7.35;;;10.60;99.90;;;;;;5073076;28;20119;-68
2022/11/07 06:17:23;;;;;;;37.70;5.95;;;10.60;99.90;;;;;;5072675;28;20025;-68
2022/11/07 06:19:48;;;;;;;50.05;7.15;;;10.60;99.90;;;;;;5073014;28;20064;-68
2022/11/07 06:22:14;;;;;;;33.47;6.50;;;10.60;99.90;;;;;;5076723;28;20083;-68
2022/11/07 06:24:39;;;;;;;41.40;5.57;;;10.60;99.90;;;;;;5077395;28;20082;-68
2022/11/07 06:27:05;;;;;;;43.05;6.80;;;10.60;99.90;;;;;;5077008;28;20039;-68
2022/11/07 06:29:30;;;;;;;50.08;6.72;;;10.60;99.90;;;;;;5076686;28;20029;-68
2022/11/07 06:31:56;;;;;;;47.78;7.40;;;10.50;99.90;;;;;;5077288;28;20027;-68
2022/11/07 06:34:21;;;;;;;44.50;6.68;;;10.50;99.90;;;;;;5076964;28;20028;-68
2022/11/07 06:36:54;;;;;;;33.65;5.22;;;10.50;99.90;;;;;;5076976;28;20029;-68
2022/11/07 06:39:20;;;;;;;46.97;7.22;;;10.50;99.90;;;;;;5076921;28;20055;-68
2022/11/07 06:41:47;;;;;;;28.25;5.75;;;10.50;99.90;;;;;;5076497;28;20071;-68
2022/11/07 06:44:13;;;;;;;44.88;7.10;;;10.50;99.90;;;;;;5076705;28;20033;-68
2022/11/07 06:46:39;;;;;;;26.25;5.20;;;10.50;99.90;;;;;;5077139;28;20031;-68
2022/11/07 06:49:04;;;;;;;30.98;4.97;;;10.60;99.90;;;;;;5076577;28;20032;-68
2022/11/07 06:51:30;;;;;;;32.05;5.15;;;10.70;99.90;;;;;;5077125;28;20127;-68
2022/11/07 06:53:56;;;;;;;30.10;6.05;;;10.80;99.90;;;;;;5076841;28;20021;-68
2022/11/07 06:56:22;;;;;;;28.83;4.72;;;10.80;99.90;;;;;;5075936;28;20388;-68
2022/11/07 06:58:48;;;;;;;39.58;5.97;;;10.70;99.90;;;;;;5077246;28;20021;-68
2022/11/07 07:01:13;;;;;;;33.38;6.03;;;10.80;99.90;;;;;;5076848;28;20025;-68
2022/11/07 07:03:40;;;;;;;34.50;5.53;;;10.80;99.90;;;;;;5076663;28;20549;-68
2022/11/07 07:06:10;;;;;;;34.60;6.50;;;10.90;99.90;;;;;;5076283;28;20121;-68
2022/11/07 07:08:35;;;;;;;37.92;6.68;;;10.90;99.90;;;;;;5075827;28;20480;-68
2022/11/07 07:11:06;;;;;;;44.22;5.72;;;11.00;99.90;;;;;;5076211;28;20040;-68
2022/11/07 07:13:32;;;;;;;39.33;6.15;;;11.00;99.90;;;;;;5076510;28;20025;-68
2022/11/07 07:15:58;;;;;;;30.35;5.15;;;11.10;99.90;;;;;;5076078;28;20048;-68
2022/11/07 07:18:25;;;;;;;37.67;5.90;;;11.10;99.90;;;;;;5076368;28;20056;-68
2022/11/07 07:20:51;;;;;;;32.95;5.95;;;11.10;99.90;;;;;;5076280;28;20039;-68
2022/11/07 07:23:18;;;;;;;33.00;5.63;;;11.10;99.90;;;;;;5075440;28;20484;-68
2022/11/07 07:25:45;;;;;;;38.15;6.15;;;11.00;99.90;;;;;;5076235;28;20032;-68
2022/11/07 07:28:10;;;;;;;31.88;6.18;;;11.10;99.90;;;;;;5075719;28;20537;-68
2022/11/07 07:30:36;;;;;;;39.72;6.22;;;11.10;99.90;;;;;;5076141;28;20029;-68
2022/11/07 07:33:01;;;;;;;37.78;6.43;;;11.10;99.90;;;;;;5075199;28;20034;-68
2022/11/07 07:35:27;;;;;;;50.90;6.50;;;11.10;99.90;;;;;;5075767;28;20024;-68
2022/11/07 07:37:52;;;;;;;33.47;5.70;;;11.20;99.90;;;;;;5071651;28;20070;-68
2022/11/07 07:40:19;;;;;;;38.83;6.22;;;11.20;99.90;;;;;;5068426;28;20064;-68
2022/11/07 07:42:45;;;;;;;32.63;6.35;;;11.20;99.90;;;;;;5069447;28;20051;-68
2022/11/07 07:45:12;;;;;;;39.22;6.03;;;11.30;99.90;;;;;;5055339;28;20532;-68
2022/11/07 07:47:39;;;;;;;38.70;7.05;;;11.20;99.90;;;;;;5069328;28;20384;-68
2022/11/07 07:50:06;;;;;;;44.65;5.70;;;11.10;99.90;;;;;;5055731;28;20025;-67
2022/11/07 07:52:31;;;;;;;36.75;6.80;;;11.10;99.90;;;;;;5055699;28;20021;-68
2022/11/07 07:54:57;;;;;;;48.85;6.72;;;11.10;99.90;;;;;;5054924;28;20024;-67
2022/11/07 07:57:22;;;;;;;48.55;5.72;;;11.10;99.90;;;;;;5055216;28;20543;-68
2022/11/07 07:59:48;;;;;;;46.85;7.28;;;11.10;99.90;;;;;;5055298;28;20033;-67
2022/11/07 08:02:14;;;;;;;43.33;6.65;;;11.10;99.90;;;;;;5055459;28;20021;-68
2022/11/07 08:04:40;;;;;;;41.00;6.68;;;11.10;99.90;;;;;;5054670;28;20035;-67
2022/11/07 08:07:05;;;;;;;38.60;6.35;;;11.20;99.90;;;;;;5055904;28;20408;-68
2022/11/07 08:09:35;;;;;;;41.65;6.93;;;11.30;99.90;;;;;;5055338;28;20029;-68
2022/11/07 08:12:02;;;;;;;46.30;7.65;;;11.30;99.90;;;;;;5055371;28;20025;-68
2022/11/07 08:14:28;;;;;;;42.35;7.60;;;11.20;99.90;;;;;;5055298;28;20049;-69
2022/11/07 08:16:53;;;;;;;33.58;7.35;;;11.20;99.90;;;;;;5054452;28;20056;-67
2022/11/07 08:19:19;;;;;;;38.78;6.45;;;11.10;99.90;;;;;;5054836;28;20522;-68
2022/11/07 08:21:44;;;;;;;43.88;6.18;;;11.10;99.90;;;;;;5055420;28;20071;-68
2022/11/07 08:24:10;;;;;;;57.17;5.70;;;11.10;99.90;;;;;;5055103;28;20040;-68
2022/11/07 08:26:36;;;;;;;40.13;5.70;;;11.10;99.90;;;;;;5054773;28;20060;-69
2022/11/07 08:29:02;;;;;;;42.42;6.43;;;11.10;99.90;;;;;;5054384;28;20029;-68
2022/11/07 08:31:27;;;;;;;30.30;5.25;;;11.20;99.90;;;;;;5055184;28;20025;-68
2022/11/07 08:33:57;;;;;;;32.03;6.55;;;11.10;99.90;;;;;;5054935;28;20021;-68
2022/11/07 08:36:23;;;;;;;31.45;6.10;;;11.10;99.90;;;;;;5054741;28;20048;-68
2022/11/07 08:38:48;;;;;;;47.50;7.32;;;11.20;99.90;;;;;;5054483;28;20481;-68
2022/11/07 08:41:14;;;;;;;45.25;7.50;;;11.20;99.90;;;;;;5054504;28;20025;-68
2022/11/07 08:43:39;;;;;;;41.55;5.50;;;11.30;99.90;;;;;;5053478;28;20037;-68
2022/11/07 08:46:05;;;;;;;38.15;5.40;;;11.30;99.90;;;;;;5054940;28;20029;-69
2022/11/07 08:48:30;;;;;;;31.88;5.63;;;11.40;99.90;;;;;;5054327;28;20035;-68
2022/11/07 08:50:58;;;;;;;42.45;6.25;;;11.40;99.90;;;;;;5065244;28;20126;-68
2022/11/07 08:53:25;;;;;;;34.40;6.13;;;11.40;99.90;;;;;;5073885;28;20396;-68
2022/11/07 08:55:51;;;;;;;35.92;4.88;;;11.40;99.90;;;;;;5074286;28;20033;-68
2022/11/07 08:58:17;;;;;;;38.03;6.03;;;11.50;99.90;;;;;;5074500;28;20025;-68
2022/11/07 09:00:43;;;;;;;30.13;5.82;;;11.60;99.90;;;;;;5074044;28;20031;-68
2022/11/07 09:03:10;;;;;;;32.60;5.57;;;11.60;99.90;;;;;;5073663;28;20028;-68
2022/11/07 09:05:37;;;;;;;22.73;5.22;;;11.70;99.90;;;;;;5074029;28;20383;-68
2022/11/07 09:08:02;;;;;;;35.45;4.97;;;11.80;99.90;;;;;;5067234;28;20384;-69
2022/11/07 09:10:28;;;;;;;29.67;5.88;;;11.90;99.90;;;;;;5053982;28;20021;-69
2022/11/07 09:12:53;;;;;;;33.63;5.93;;;12.00;99.90;;;;;;5053504;28;20036;-68
2022/11/07 09:15:20;;;;;;;48.78;5.47;;;12.10;99.90;;;;;;5053918;28;20017;-68
2022/11/07 09:17:46;;;;;;;27.60;5.90;;;12.00;99.90;;;;;;5054034;28;20485;-68
2022/11/07 09:20:14;;;;;;;40.60;7.05;;;12.00;99.90;;;;;;5054120;28;20028;-68
2022/11/07 09:22:40;;;;;;;30.70;5.55;;;11.90;99.90;;;;;;5054256;28;20086;-68
2022/11/07 09:25:07;;;;;;;39.22;6.18;;;12.00;99.90;;;;;;5053406;28;20025;-69
2022/11/07 09:27:32;;;;;;;40.28;7.28;;;12.00;99.90;;;;;;5053690;28;20024;-68
2022/11/07 09:29:58;;;;;;;35.17;6.00;;;12.00;99.90;;;;;;5054262;28;20487;-69
2022/11/07 09:32:23;;;;;;;42.75;6.88;;;12.10;99.90;;;;;;5054175;28;20033;-69
2022/11/07 09:34:49;;;;;;;28.60;6.22;;;12.20;99.90;;;;;;5053028;28;20031;-68
2022/11/07 09:37:15;;;;;;;41.95;5.85;;;12.20;99.90;;;;;;5053680;28;20476;-68
2022/11/07 09:39:40;;;;;;;37.05;5.47;;;12.20;99.90;;;;;;5053740;28;20033;-68
2022/11/07 09:42:24;;;;;;;26.80;5.07;;;12.20;99.90;;;;;;5053765;28;20374;-69
2022/11/07 09:44:57;;;;;;;26.75;5.63;;;12.10;99.90;;;;;;5053780;28;20021;-68
2022/11/07 09:47:28;;;;;;;28.92;5.63;;;12.10;99.90;;;;;;5052909;28;20032;-68
2022/11/07 09:50:02;;;;;;;24.80;6.00;;;12.10;99.90;;;;;;5053484;28;20377;-69
2022/11/07 09:52:39;;;;;;;29.30;5.05;;;12.10;99.90;;;;;;5053547;28;20060;-68
2022/11/07 09:55:33;;;;;;;29.73;4.85;;;11.90;99.90;;;;;;5052864;28;20032;-68
2022/11/07 09:58:05;;;;;;;38.13;6.77;;;11.90;99.90;;;;;;5052701;28;20100;-69
2022/11/07 10:00:31;;;;;;;34.42;6.18;;;11.80;99.90;;;;;;5053474;28;20355;-69
2022/11/07 10:02:59;;;;;;;31.48;5.45;;;11.90;99.90;;;;;;5053198;28;20056;-69
2022/11/07 10:05:56;;;;;;;27.40;5.63;;;11.90;99.90;;;;;;5053565;28;20496;-68
2022/11/07 10:08:36;;;;;;;30.67;5.30;;;12.00;99.90;;;;;;5053639;28;20020;-69
2022/11/07 10:11:24;;;;;;;19.98;4.55;;;12.10;99.90;;;;;;5053106;28;20107;-68
2022/11/07 10:14:08;;;;;;;19.73;4.53;;;12.10;99.90;;;;;;5053347;28;20542;-69
2022/11/07 10:16:48;;;;;;;;;;;12.20;99.90;;;;;;5053444;28;20024;-69
2022/11/07 10:19:47;;;;;;;26.33;4.75;;;12.10;99.90;;;;;;5053369;28;19935;-69
2022/11/07 10:22:38;;;;;;;32.28;5.88;;;12.20;99.90;;;;;;5053338;28;20098;-69
2022/11/07 10:25:36;;;;;;;22.10;4.15;;;12.20;99.90;;;;;;5053287;28;20040;-69
2022/11/07 10:28:13;;;;;;;30.67;5.18;;;12.20;99.90;;;;;;5052553;28;20434;-69
2022/11/07 10:30:41;;;;;;;30.17;6.32;;;12.20;99.90;;;;;;5051667;28;20159;-69
2022/11/07 10:33:34;;;;;;;16.17;4.38;;;12.20;99.90;;;;;;5053175;28;20021;-68
2022/11/07 10:36:28;;;;;;;27.40;5.97;;;12.00;99.90;;;;;;5052915;28;20439;-68
2022/11/07 10:38:54;;;;;;;27.42;4.15;;;12.10;99.90;;;;;;5052367;28;20033;-69
2022/11/07 10:41:22;;;;;;;36.15;6.13;;;12.10;99.90;;;;;;5052807;28;20064;-69
2022/11/07 10:44:14;;;;;;;35.58;5.45;;;12.10;99.90;;;;;;5053363;28;20079;-69
2022/11/07 10:46:42;;;;;;;32.03;5.30;;;12.20;99.90;;;;;;5053242;28;20480;-69
2022/11/07 10:49:25;;;;;;;30.45;4.78;;;12.10;99.90;;;;;;5052857;28;20044;-69
2022/11/07 10:51:53;;;;;;;22.33;4.57;;;12.10;99.90;;;;;;5052418;28;20431;-68
2022/11/07 10:54:24;;;;;;;24.13;5.03;;;12.10;99.90;;;;;;5053187;28;20025;-69
2022/11/07 10:57:03;;;;;;;28.30;5.32;;;12.10;99.90;;;;;;5052560;28;20508;-69
2022/11/07 10:59:31;;;;;;;23.25;5.70;;;12.10;99.90;;;;;;5052640;28;20025;-69
2022/11/07 11:01:59;;;;;;;24.60;4.90;;;12.10;99.90;;;;;;5052490;28;20108;-69
2022/11/07 11:04:28;;;;;;;26.10;5.70;;;12.10;99.90;;;;;;5052856;28;20029;-69
2022/11/07 11:07:03;;;;;;;39.53;6.45;;;12.10;99.90;;;;;;5053111;28;20396;-69
2022/11/07 11:09:31;;;;;;;32.00;5.50;;;12.20;99.90;;;;;;5056439;28;20436;-69
2022/11/07 11:11:57;;;;;;;25.88;4.95;;;12.30;99.90;;;;;;5056558;28;20147;-70
2022/11/07 11:14:23;;;;;;;29.73;5.53;;;12.40;99.90;;;;;;5056439;28;20052;-70
2022/11/07 11:16:53;;;;;;;31.13;6.82;;;12.50;99.90;;;;;;5055410;28;20057;-69
2022/11/07 11:19:31;;;;;;;25.23;5.25;;;12.40;99.90;;;;;;5056480;28;20021;-70
2022/11/07 11:21:57;;;;;;;28.35;5.22;;;12.40;99.90;;;;;;5056156;28;20025;-70
2022/11/07 11:24:29;;;;;;;33.78;6.28;;;12.30;99.90;;;;;;5055949;28;20033;-69
2022/11/07 11:26:58;;;;;;;30.63;5.85;;;12.40;99.90;;;;;;5056422;28;20029;-70
2022/11/07 11:30:00;;;;;;;39.78;6.40;;;12.40;99.90;;;;;;5055595;28;20021;-69
2022/11/07 11:32:55;;;;;;;30.52;5.90;;;12.50;99.90;;;;;;5055894;28;20021;-70
2022/11/07 11:35:33;;;;;;;26.52;6.30;;;12.40;99.90;;;;;;5056160;28;20468;-70
2022/11/07 11:38:22;;;;;;;30.63;6.88;;;12.40;99.90;;;;;;5055583;28;20543;-69
2022/11/07 11:40:53;;;;;;;32.47;6.90;;;12.30;99.90;;;;;;5054795;28;20033;-69
2022/11/07 11:43:20;;;;;;;37.97;6.28;;;12.30;99.90;;;;;;5055734;28;20108;-70
2022/11/07 11:46:08;;;;;;;37.40;7.15;;;12.20;99.90;;;;;;5055698;28;20075;-70
2022/11/07 11:48:45;;;;;;;21.30;6.05;;;12.20;99.90;;;;;;5055974;28;20103;-69
2022/11/07 11:51:16;;;;;;;32.80;6.10;;;12.20;99.90;;;;;;5061681;28;20082;-70
2022/11/07 11:53:42;;;;;;;30.83;6.43;;;12.10;99.90;;;;;;5061699;28;20017;-69
2022/11/07 11:56:16;;;;;;;40.47;6.75;;;12.10;99.90;;;;;;5055028;28;20047;-69
2022/11/07 11:58:49;;;;;;;39.45;7.38;;;12.10;99.90;;;;;;5055416;28;20075;-69
2022/11/07 12:01:31;;;;;;;40.05;5.70;;;12.10;99.90;;;;;;5055478;28;20108;-69
2022/11/07 12:04:09;;;;;;;29.73;7.10;;;12.20;99.90;;;;;;5055653;28;20033;-69
2022/11/07 12:06:41;;;;;;;46.03;6.90;;;12.20;99.90;;;;;;5054565;28;20028;-69
2022/11/07 12:09:26;;;;;;;31.70;6.10;;;12.30;99.90;;;;;;5055738;28;20029;-70
2022/11/07 12:12:18;;;;;;;29.95;5.90;;;12.30;99.90;;;;;;5044547;28;20037;-70
2022/11/07 12:14:49;;;;;;;37.83;6.50;;;12.30;99.90;;;;;;5055373;28;20016;-69
2022/11/07 12:17:20;;;;;;;42.65;8.20;;;12.30;99.90;;;;;;5054449;28;20032;-69
2022/11/07 12:19:53;;;;;;;34.63;6.25;;;12.40;99.90;;;;;;5054337;28;20060;-68
2022/11/07 12:22:39;;;;;;;34.05;7.43;;;12.40;99.90;;;;;;5055243;28;20029;-69
2022/11/07 12:25:08;;;;;;;39.78;7.80;;;12.40;99.90;;;;;;5055422;28;20021;-70
2022/11/07 12:27:52;;;;;;;27.92;6.60;;;12.30;99.90;;;;;;5054311;28;20396;-69
2022/11/07 12:30:44;;;;;;;;;;;12.30;99.90;;;;;;5055997;28;20438;-69
2022/11/07 12:33:27;;;;;;;38.88;5.88;;;12.30;99.90;;;;;;5052392;28;20454;-70
2022/11/07 12:35:56;;;;;;;41.47;6.20;;;12.30;99.90;;;;;;5054530;28;20024;-70
2022/11/07 12:38:50;;;;;;;44.40;7.10;;;12.30;99.90;;;;;;5054862;28;20029;-70
2022/11/07 12:41:33;;;;;;;40.50;7.82;;;12.20;99.90;;;;;;5054944;28;20025;-70
2022/11/07 12:44:15;;;;;;;44.40;7.47;;;12.20;99.90;;;;;;5054736;28;20033;-69
2022/11/07 12:46:47;;;;;;;39.83;8.40;;;12.20;99.90;;;;;;5054729;28;20028;-70
2022/11/07 12:49:36;;;;;;;41.33;7.43;;;12.20;99.90;;;;;;5054047;28;20029;-69
2022/11/07 12:52:33;;;;;;;42.65;8.23;;;12.30;99.90;;;;;;5054689;28;20017;-70
2022/11/07 12:55:03;;;;;;;34.03;6.95;;;12.20;99.90;;;;;;5054540;28;20013;-69
2022/11/07 12:57:35;;;;;;;29.92;6.65;;;12.30;99.90;;;;;;5054179;28;20021;-69